Terminal Aerodrome Forecast
Issued by NWS

Home | Current Version | Previous Version | Text Only | Print | Product List | Glossary On
Versions: 1 2 3 4 5 6 7 8 9 10 11 12 13
000
FTUS44 KCRP 261130
TAFLRD
TAF
KLRD 261130Z 2612/2712 15012KT P6SM BKN014
     FM261400 16015G22KT P6SM BKN022
     FM261600 16015G22KT P6SM FEW035
     FM262300 13012KT P6SM SCT025
     FM270900 15012KT P6SM BKN025=

USA.gov is the U.S. government's official web portal to all federal, state and local government web resources and services.